sensor_id;sensor_type;location;lat;lon;timestamp;P1;durP1;ratioP1;P2;durP2;ratioP2
1949;SDS011;975;48.760;9.152;2022-12-18T00:01:39;47.38;;;16.02;;
1949;SDS011;975;48.760;9.152;2022-12-18T00:04:27;51.70;;;16.40;;
1949;SDS011;975;48.760;9.152;2022-12-18T00:07:15;49.67;;;13.50;;
1949;SDS011;975;48.760;9.152;2022-12-18T00:10:03;44.88;;;14.40;;
1949;SDS011;975;48.760;9.152;2022-12-18T00:12:53;49.72;;;14.38;;
1949;SDS011;975;48.760;9.152;2022-12-18T00:15:40;46.85;;;15.55;;
1949;SDS011;975;48.760;9.152;2022-12-18T00:18:28;42.97;;;13.57;;
1949;SDS011;975;48.760;9.152;2022-12-18T00:21:17;47.53;;;13.75;;
1949;SDS011;975;48.760;9.152;2022-12-18T00:24:11;41.65;;;13.98;;
1949;SDS011;975;48.760;9.152;2022-12-18T00:26:59;44.55;;;15.00;;
1949;SDS011;975;48.760;9.152;2022-12-18T00:29:48;48.42;;;14.68;;
1949;SDS011;975;48.760;9.152;2022-12-18T00:32:36;44.00;;;14.40;;
1949;SDS011;975;48.760;9.152;2022-12-18T00:35:24;44.42;;;14.70;;
1949;SDS011;975;48.760;9.152;2022-12-18T00:38:13;46.55;;;14.43;;
1949;SDS011;975;48.760;9.152;2022-12-18T00:41:01;38.40;;;12.65;;
1949;SDS011;975;48.760;9.152;2022-12-18T00:43:48;36.95;;;13.57;;
1949;SDS011;975;48.760;9.152;2022-12-18T00:46:37;36.88;;;12.38;;
1949;SDS011;975;48.760;9.152;2022-12-18T00:49:25;46.50;;;14.68;;
1949;SDS011;975;48.760;9.152;2022-12-18T00:52:12;48.05;;;13.02;;
1949;SDS011;975;48.760;9.152;2022-12-18T00:55:00;46.67;;;12.32;;
1949;SDS011;975;48.760;9.152;2022-12-18T00:57:50;37.58;;;12.70;;
1949;SDS011;975;48.760;9.152;2022-12-18T01:00:38;40.85;;;14.18;;
1949;SDS011;975;48.760;9.152;2022-12-18T01:03:28;41.40;;;13.45;;
1949;SDS011;975;48.760;9.152;2022-12-18T01:06:16;43.53;;;14.35;;
1949;SDS011;975;48.760;9.152;2022-12-18T01:09:04;42.38;;;14.15;;
1949;SDS011;975;48.760;9.152;2022-12-18T01:11:52;35.83;;;11.82;;
1949;SDS011;975;48.760;9.152;2022-12-18T01:14:40;52.55;;;15.45;;
1949;SDS011;975;48.760;9.152;2022-12-18T01:17:28;43.28;;;13.25;;
1949;SDS011;975;48.760;9.152;2022-12-18T01:20:17;47.53;;;13.75;;
1949;SDS011;975;48.760;9.152;2022-12-18T01:23:08;44.13;;;12.88;;
1949;SDS011;975;48.760;9.152;2022-12-18T01:25:56;46.17;;;14.23;;
1949;SDS011;975;48.760;9.152;2022-12-18T01:28:44;45.65;;;14.20;;
1949;SDS011;975;48.760;9.152;2022-12-18T01:31:32;37.47;;;13.05;;
1949;SDS011;975;48.760;9.152;2022-12-18T01:34:20;44.78;;;13.93;;
1949;SDS011;975;48.760;9.152;2022-12-18T01:37:10;41.13;;;13.98;;
1949;SDS011;975;48.760;9.152;2022-12-18T01:39:58;41.15;;;13.50;;
1949;SDS011;975;48.760;9.152;2022-12-18T01:42:48;42.78;;;13.50;;
1949;SDS011;975;48.760;9.152;2022-12-18T01:45:36;40.22;;;13.60;;
1949;SDS011;975;48.760;9.152;2022-12-18T01:48:24;43.80;;;13.38;;
1949;SDS011;975;48.760;9.152;2022-12-18T01:51:12;37.05;;;13.73;;
1949;SDS011;975;48.760;9.152;2022-12-18T01:54:01;53.88;;;14.45;;
1949;SDS011;975;48.760;9.152;2022-12-18T01:56:49;46.78;;;13.32;;
1949;SDS011;975;48.760;9.152;2022-12-18T01:59:37;33.35;;;13.65;;
1949;SDS011;975;48.760;9.152;2022-12-18T02:02:27;52.65;;;14.25;;
1949;SDS011;975;48.760;9.152;2022-12-18T02:05:16;44.92;;;14.50;;
1949;SDS011;975;48.760;9.152;2022-12-18T02:08:08;41.83;;;13.75;;
1949;SDS011;975;48.760;9.152;2022-12-18T02:11:00;55.30;;;14.65;;
1949;SDS011;975;48.760;9.152;2022-12-18T02:13:53;42.97;;;13.60;;
1949;SDS011;975;48.760;9.152;2022-12-18T02:16:44;48.97;;;14.57;;
1949;SDS011;975;48.760;9.152;2022-12-18T02:19:37;42.88;;;14.65;;
1949;SDS011;975;48.760;9.152;2022-12-18T02:22:29;35.50;;;13.23;;
1949;SDS011;975;48.760;9.152;2022-12-18T02:25:26;23.02;;;9.30;;
1949;SDS011;975;48.760;9.152;2022-12-18T02:28:18;47.40;;;14.52;;
1949;SDS011;975;48.760;9.152;2022-12-18T02:31:08;34.47;;;12.32;;
1949;SDS011;975;48.760;9.152;2022-12-18T02:33:59;44.35;;;14.60;;
1949;SDS011;975;48.760;9.152;2022-12-18T02:36:48;45.28;;;15.43;;
1949;SDS011;975;48.760;9.152;2022-12-18T02:39:37;51.60;;;15.73;;
1949;SDS011;975;48.760;9.152;2022-12-18T02:42:25;40.80;;;13.52;;
1949;SDS011;975;48.760;9.152;2022-12-18T02:45:15;42.15;;;14.23;;
1949;SDS011;975;48.760;9.152;2022-12-18T02:48:03;46.75;;;15.32;;
1949;SDS011;975;48.760;9.152;2022-12-18T02:50:52;39.90;;;14.13;;
1949;SDS011;975;48.760;9.152;2022-12-18T02:53:44;48.15;;;15.82;;
1949;SDS011;975;48.760;9.152;2022-12-18T02:56:33;42.75;;;14.60;;
1949;SDS011;975;48.760;9.152;2022-12-18T02:59:24;42.65;;;14.73;;
1949;SDS011;975;48.760;9.152;2022-12-18T03:02:17;47.75;;;15.13;;
1949;SDS011;975;48.760;9.152;2022-12-18T03:05:07;36.47;;;14.20;;
1949;SDS011;975;48.760;9.152;2022-12-18T03:07:57;44.95;;;13.45;;
1949;SDS011;975;48.760;9.152;2022-12-18T03:10:48;42.60;;;13.95;;
1949;SDS011;975;48.760;9.152;2022-12-18T03:13:38;39.13;;;13.65;;
1949;SDS011;975;48.760;9.152;2022-12-18T03:16:28;32.38;;;12.07;;
1949;SDS011;975;48.760;9.152;2022-12-18T03:19:20;41.53;;;14.55;;
1949;SDS011;975;48.760;9.152;2022-12-18T03:22:09;41.25;;;13.60;;
1949;SDS011;975;48.760;9.152;2022-12-18T03:24:57;36.90;;;13.27;;
1949;SDS011;975;48.760;9.152;2022-12-18T03:27:47;35.92;;;12.05;;
1949;SDS011;975;48.760;9.152;2022-12-18T03:30:35;36.92;;;13.68;;
1949;SDS011;975;48.760;9.152;2022-12-18T03:33:27;24.73;;;9.60;;
1949;SDS011;975;48.760;9.152;2022-12-18T03:36:18;39.65;;;13.77;;
1949;SDS011;975;48.760;9.152;2022-12-18T03:39:06;28.83;;;12.52;;
1949;SDS011;975;48.760;9.152;2022-12-18T03:41:55;41.10;;;12.77;;
1949;SDS011;975;48.760;9.152;2022-12-18T03:44:48;47.88;;;14.52;;
1949;SDS011;975;48.760;9.152;2022-12-18T03:47:38;39.42;;;13.05;;
1949;SDS011;975;48.760;9.152;2022-12-18T03:50:29;36.97;;;12.95;;
1949;SDS011;975;48.760;9.152;2022-12-18T03:53:25;36.55;;;13.50;;
1949;SDS011;975;48.760;9.152;2022-12-18T03:56:16;39.88;;;12.68;;
1949;SDS011;975;48.760;9.152;2022-12-18T03:59:04;43.38;;;13.00;;
1949;SDS011;975;48.760;9.152;2022-12-18T04:01:53;39.28;;;13.80;;
1949;SDS011;975;48.760;9.152;2022-12-18T04:04:43;37.08;;;11.98;;
1949;SDS011;975;48.760;9.152;2022-12-18T04:07:32;40.70;;;14.02;;
1949;SDS011;975;48.760;9.152;2022-12-18T04:10:22;30.73;;;11.57;;
1949;SDS011;975;48.760;9.152;2022-12-18T04:13:10;42.35;;;13.38;;
1949;SDS011;975;48.760;9.152;2022-12-18T04:15:58;45.35;;;12.82;;
1949;SDS011;975;48.760;9.152;2022-12-18T04:18:45;22.13;;;9.20;;
1949;SDS011;975;48.760;9.152;2022-12-18T04:21:33;36.40;;;12.70;;
1949;SDS011;975;48.760;9.152;2022-12-18T04:24:21;38.25;;;12.13;;
1949;SDS011;975;48.760;9.152;2022-12-18T04:27:10;38.38;;;12.10;;
1949;SDS011;975;48.760;9.152;2022-12-18T04:29:58;34.03;;;12.77;;
1949;SDS011;975;48.760;9.152;2022-12-18T04:32:46;35.90;;;12.57;;
1949;SDS011;975;48.760;9.152;2022-12-18T04:35:34;41.45;;;12.23;;
1949;SDS011;975;48.760;9.152;2022-12-18T04:38:22;36.38;;;11.88;;
1949;SDS011;975;48.760;9.152;2022-12-18T04:41:10;26.35;;;10.90;;
1949;SDS011;975;48.760;9.152;2022-12-18T04:43:59;39.17;;;12.48;;
1949;SDS011;975;48.760;9.152;2022-12-18T04:46:47;33.03;;;10.27;;
1949;SDS011;975;48.760;9.152;2022-12-18T04:49:34;34.00;;;11.35;;
1949;SDS011;975;48.760;9.152;2022-12-18T04:52:22;37.75;;;11.80;;
1949;SDS011;975;48.760;9.152;2022-12-18T04:55:10;39.35;;;11.85;;
1949;SDS011;975;48.760;9.152;2022-12-18T04:57:58;37.72;;;12.63;;
1949;SDS011;975;48.760;9.152;2022-12-18T05:00:47;31.48;;;9.50;;
1949;SDS011;975;48.760;9.152;2022-12-18T05:03:35;32.83;;;10.23;;
1949;SDS011;975;48.760;9.152;2022-12-18T05:06:23;34.55;;;12.13;;
1949;SDS011;975;48.760;9.152;2022-12-18T05:09:11;31.23;;;10.13;;
1949;SDS011;975;48.760;9.152;2022-12-18T05:11:59;36.10;;;12.32;;
1949;SDS011;975;48.760;9.152;2022-12-18T05:14:47;32.42;;;10.10;;
1949;SDS011;975;48.760;9.152;2022-12-18T05:17:36;39.20;;;10.35;;
1949;SDS011;975;48.760;9.152;2022-12-18T05:20:24;25.70;;;9.98;;
1949;SDS011;975;48.760;9.152;2022-12-18T05:23:12;36.97;;;11.63;;
1949;SDS011;975;48.760;9.152;2022-12-18T05:26:00;31.92;;;11.85;;
1949;SDS011;975;48.760;9.152;2022-12-18T05:28:48;36.60;;;11.43;;
1949;SDS011;975;48.760;9.152;2022-12-18T05:31:36;32.55;;;11.23;;
1949;SDS011;975;48.760;9.152;2022-12-18T05:34:25;27.17;;;10.23;;
1949;SDS011;975;48.760;9.152;2022-12-18T05:37:13;33.50;;;12.75;;
1949;SDS011;975;48.760;9.152;2022-12-18T05:40:01;31.98;;;11.45;;
1949;SDS011;975;48.760;9.152;2022-12-18T05:42:49;37.60;;;11.85;;
1949;SDS011;975;48.760;9.152;2022-12-18T05:45:37;35.72;;;9.93;;
1949;SDS011;975;48.760;9.152;2022-12-18T05:48:25;30.92;;;11.10;;
1949;SDS011;975;48.760;9.152;2022-12-18T05:51:16;33.95;;;9.43;;
1949;SDS011;975;48.760;9.152;2022-12-18T05:54:04;29.05;;;9.73;;
1949;SDS011;975;48.760;9.152;2022-12-18T05:56:52;35.70;;;10.95;;
1949;SDS011;975;48.760;9.152;2022-12-18T05:59:40;23.55;;;10.50;;
1949;SDS011;975;48.760;9.152;2022-12-18T06:02:27;27.88;;;9.25;;
1949;SDS011;975;48.760;9.152;2022-12-18T06:05:15;29.10;;;10.57;;
1949;SDS011;975;48.760;9.152;2022-12-18T06:08:05;30.83;;;9.57;;
1949;SDS011;975;48.760;9.152;2022-12-18T06:10:52;35.20;;;11.45;;
1949;SDS011;975;48.760;9.152;2022-12-18T06:13:40;26.20;;;9.48;;
1949;SDS011;975;48.760;9.152;2022-12-18T06:16:28;32.70;;;9.98;;
1949;SDS011;975;48.760;9.152;2022-12-18T06:19:16;33.72;;;10.25;;
1949;SDS011;975;48.760;9.152;2022-12-18T06:22:04;42.42;;;10.30;;
1949;SDS011;975;48.760;9.152;2022-12-18T06:24:53;25.10;;;8.52;;
1949;SDS011;975;48.760;9.152;2022-12-18T06:27:40;29.35;;;10.73;;
1949;SDS011;975;48.760;9.152;2022-12-18T06:30:28;33.10;;;10.68;;
1949;SDS011;975;48.760;9.152;2022-12-18T06:33:16;31.88;;;10.27;;
1949;SDS011;975;48.760;9.152;2022-12-18T06:36:05;31.20;;;10.45;;
1949;SDS011;975;48.760;9.152;2022-12-18T06:38:55;29.25;;;9.18;;
1949;SDS011;975;48.760;9.152;2022-12-18T06:41:45;25.98;;;11.05;;
1949;SDS011;975;48.760;9.152;2022-12-18T06:44:32;34.78;;;11.38;;
1949;SDS011;975;48.760;9.152;2022-12-18T06:47:20;33.45;;;10.05;;
1949;SDS011;975;48.760;9.152;2022-12-18T06:50:08;26.48;;;11.10;;
1949;SDS011;975;48.760;9.152;2022-12-18T06:52:55;36.65;;;10.52;;
1949;SDS011;975;48.760;9.152;2022-12-18T06:55:43;29.15;;;8.10;;
1949;SDS011;975;48.760;9.152;2022-12-18T06:58:32;33.72;;;11.85;;
1949;SDS011;975;48.760;9.152;2022-12-18T07:01:20;32.05;;;10.10;;
1949;SDS011;975;48.760;9.152;2022-12-18T07:04:11;24.17;;;9.27;;
1949;SDS011;975;48.760;9.152;2022-12-18T07:06:59;32.72;;;10.05;;
1949;SDS011;975;48.760;9.152;2022-12-18T07:09:47;39.55;;;11.25;;
1949;SDS011;975;48.760;9.152;2022-12-18T07:12:36;29.48;;;10.45;;
1949;SDS011;975;48.760;9.152;2022-12-18T07:15:25;28.23;;;10.38;;
1949;SDS011;975;48.760;9.152;2022-12-18T07:18:12;35.10;;;10.20;;
1949;SDS011;975;48.760;9.152;2022-12-18T07:21:02;28.10;;;10.20;;
1949;SDS011;975;48.760;9.152;2022-12-18T07:23:51;22.38;;;9.13;;
1949;SDS011;975;48.760;9.152;2022-12-18T07:26:39;31.33;;;10.52;;
1949;SDS011;975;48.760;9.152;2022-12-18T07:29:27;33.55;;;10.27;;
1949;SDS011;975;48.760;9.152;2022-12-18T07:32:16;14.30;;;5.50;;
1949;SDS011;975;48.760;9.152;2022-12-18T07:35:04;33.55;;;9.98;;
1949;SDS011;975;48.760;9.152;2022-12-18T07:37:51;24.83;;;8.63;;
1949;SDS011;975;48.760;9.152;2022-12-18T07:40:39;32.67;;;10.27;;
1949;SDS011;975;48.760;9.152;2022-12-18T07:43:27;31.45;;;10.20;;
1949;SDS011;975;48.760;9.152;2022-12-18T07:46:15;27.85;;;9.75;;
1949;SDS011;975;48.760;9.152;2022-12-18T07:49:04;27.25;;;9.25;;
1949;SDS011;975;48.760;9.152;2022-12-18T07:51:53;26.52;;;8.13;;
1949;SDS011;975;48.760;9.152;2022-12-18T07:54:42;14.23;;;7.47;;
1949;SDS011;975;48.760;9.152;2022-12-18T07:57:29;39.88;;;11.45;;
1949;SDS011;975;48.760;9.152;2022-12-18T08:00:17;27.05;;;10.05;;
1949;SDS011;975;48.760;9.152;2022-12-18T08:03:05;29.35;;;11.00;;
1949;SDS011;975;48.760;9.152;2022-12-18T08:05:55;32.35;;;11.32;;
1949;SDS011;975;48.760;9.152;2022-12-18T08:08:45;31.58;;;10.18;;
1949;SDS011;975;48.760;9.152;2022-12-18T08:11:33;26.63;;;9.18;;
1949;SDS011;975;48.760;9.152;2022-12-18T08:14:21;32.33;;;8.88;;
1949;SDS011;975;48.760;9.152;2022-12-18T08:17:08;27.98;;;9.65;;
1949;SDS011;975;48.760;9.152;2022-12-18T08:19:56;30.52;;;9.32;;
1949;SDS011;975;48.760;9.152;2022-12-18T08:22:45;29.10;;;8.90;;
1949;SDS011;975;48.760;9.152;2022-12-18T08:25:33;36.70;;;11.18;;
1949;SDS011;975;48.760;9.152;2022-12-18T08:28:21;33.25;;;10.98;;
1949;SDS011;975;48.760;9.152;2022-12-18T08:31:08;29.45;;;9.50;;
1949;SDS011;975;48.760;9.152;2022-12-18T08:33:56;36.42;;;12.40;;
1949;SDS011;975;48.760;9.152;2022-12-18T08:36:44;30.73;;;11.60;;
1949;SDS011;975;48.760;9.152;2022-12-18T08:39:33;31.67;;;9.38;;
1949;SDS011;975;48.760;9.152;2022-12-18T08:42:21;33.97;;;12.23;;
1949;SDS011;975;48.760;9.152;2022-12-18T08:45:26;30.35;;;10.00;;
1949;SDS011;975;48.760;9.152;2022-12-18T08:48:15;32.70;;;10.50;;
1949;SDS011;975;48.760;9.152;2022-12-18T08:51:03;35.08;;;11.50;;
1949;SDS011;975;48.760;9.152;2022-12-18T08:53:51;37.53;;;12.82;;
1949;SDS011;975;48.760;9.152;2022-12-18T08:56:40;28.15;;;10.18;;
1949;SDS011;975;48.760;9.152;2022-12-18T08:59:27;38.20;;;12.68;;
1949;SDS011;975;48.760;9.152;2022-12-18T09:02:15;42.08;;;11.85;;
1949;SDS011;975;48.760;9.152;2022-12-18T09:05:03;31.48;;;11.20;;
1949;SDS011;975;48.760;9.152;2022-12-18T09:07:51;38.72;;;12.10;;
1949;SDS011;975;48.760;9.152;2022-12-18T09:10:41;34.63;;;12.57;;
1949;SDS011;975;48.760;9.152;2022-12-18T09:13:31;34.75;;;13.50;;
1949;SDS011;975;48.760;9.152;2022-12-18T09:16:19;36.40;;;13.05;;
1949;SDS011;975;48.760;9.152;2022-12-18T09:19:07;46.03;;;14.13;;
1949;SDS011;975;48.760;9.152;2022-12-18T09:21:56;40.80;;;13.95;;
1949;SDS011;975;48.760;9.152;2022-12-18T09:24:47;51.97;;;13.90;;
1949;SDS011;975;48.760;9.152;2022-12-18T09:27:39;33.65;;;12.73;;
1949;SDS011;975;48.760;9.152;2022-12-18T09:30:28;42.50;;;13.27;;
1949;SDS011;975;48.760;9.152;2022-12-18T09:33:18;34.55;;;13.50;;
1949;SDS011;975;48.760;9.152;2022-12-18T09:36:07;35.05;;;12.48;;
1949;SDS011;975;48.760;9.152;2022-12-18T09:38:55;30.50;;;11.80;;
1949;SDS011;975;48.760;9.152;2022-12-18T09:41:45;34.22;;;11.55;;
1949;SDS011;975;48.760;9.152;2022-12-18T09:44:36;31.83;;;12.18;;
1949;SDS011;975;48.760;9.152;2022-12-18T09:47:27;43.55;;;12.75;;
1949;SDS011;975;48.760;9.152;2022-12-18T09:50:19;41.17;;;13.90;;
1949;SDS011;975;48.760;9.152;2022-12-18T09:53:11;44.83;;;13.10;;
1949;SDS011;975;48.760;9.152;2022-12-18T09:56:00;47.47;;;14.73;;
1949;SDS011;975;48.760;9.152;2022-12-18T09:58:50;43.95;;;14.88;;
1949;SDS011;975;48.760;9.152;2022-12-18T10:01:40;35.40;;;12.68;;
1949;SDS011;975;48.760;9.152;2022-12-18T10:04:30;32.92;;;12.50;;
1949;SDS011;975;48.760;9.152;2022-12-18T10:07:19;40.00;;;13.98;;
1949;SDS011;975;48.760;9.152;2022-12-18T10:10:14;42.55;;;14.80;;
1949;SDS011;975;48.760;9.152;2022-12-18T10:13:13;32.90;;;12.95;;
1949;SDS011;975;48.760;9.152;2022-12-18T10:16:09;41.67;;;14.27;;
1949;SDS011;975;48.760;9.152;2022-12-18T10:19:03;35.25;;;11.38;;
1949;SDS011;975;48.760;9.152;2022-12-18T10:21:58;41.08;;;14.20;;
1949;SDS011;975;48.760;9.152;2022-12-18T10:24:50;38.50;;;11.88;;
1949;SDS011;975;48.760;9.152;2022-12-18T10:27:41;41.15;;;13.63;;
1949;SDS011;975;48.760;9.152;2022-12-18T10:30:32;40.58;;;14.07;;
1949;SDS011;975;48.760;9.152;2022-12-18T10:33:21;46.10;;;14.90;;
1949;SDS011;975;48.760;9.152;2022-12-18T10:36:10;42.40;;;15.25;;
1949;SDS011;975;48.760;9.152;2022-12-18T10:39:04;39.90;;;13.82;;
1949;SDS011;975;48.760;9.152;2022-12-18T10:42:09;35.17;;;12.77;;
1949;SDS011;975;48.760;9.152;2022-12-18T10:45:01;37.55;;;12.82;;
1949;SDS011;975;48.760;9.152;2022-12-18T10:47:49;36.67;;;12.60;;
1949;SDS011;975;48.760;9.152;2022-12-18T10:50:37;43.25;;;13.57;;
1949;SDS011;975;48.760;9.152;2022-12-18T10:53:26;33.20;;;13.30;;
1949;SDS011;975;48.760;9.152;2022-12-18T10:56:19;39.92;;;14.65;;
1949;SDS011;975;48.760;9.152;2022-12-18T10:59:08;37.53;;;14.00;;
1949;SDS011;975;48.760;9.152;2022-12-18T11:01:57;37.83;;;14.35;;
1949;SDS011;975;48.760;9.152;2022-12-18T11:04:49;40.35;;;13.68;;
1949;SDS011;975;48.760;9.152;2022-12-18T11:07:46;35.88;;;13.35;;
1949;SDS011;975;48.760;9.152;2022-12-18T11:10:35;32.38;;;13.32;;
1949;SDS011;975;48.760;9.152;2022-12-18T11:13:26;41.90;;;14.85;;
1949;SDS011;975;48.760;9.152;2022-12-18T11:16:17;42.58;;;15.13;;
1949;SDS011;975;48.760;9.152;2022-12-18T11:19:11;39.75;;;14.40;;
1949;SDS011;975;48.760;9.152;2022-12-18T11:22:01;39.03;;;13.20;;
1949;SDS011;975;48.760;9.152;2022-12-18T11:24:52;38.80;;;13.07;;
1949;SDS011;975;48.760;9.152;2022-12-18T11:27:41;44.45;;;12.18;;
1949;SDS011;975;48.760;9.152;2022-12-18T11:30:36;35.70;;;13.73;;
1949;SDS011;975;48.760;9.152;2022-12-18T11:33:24;30.55;;;10.45;;
1949;SDS011;975;48.760;9.152;2022-12-18T11:36:13;28.58;;;10.05;;
1949;SDS011;975;48.760;9.152;2022-12-18T11:39:03;41.78;;;13.13;;
1949;SDS011;975;48.760;9.152;2022-12-18T11:41:54;29.20;;;9.75;;
1949;SDS011;975;48.760;9.152;2022-12-18T11:44:57;29.90;;;12.43;;
1949;SDS011;975;48.760;9.152;2022-12-18T11:47:49;36.67;;;12.27;;
1949;SDS011;975;48.760;9.152;2022-12-18T11:50:41;31.88;;;12.20;;
1949;SDS011;975;48.760;9.152;2022-12-18T11:53:30;36.78;;;12.95;;
1949;SDS011;975;48.760;9.152;2022-12-18T11:56:26;37.72;;;13.50;;
1949;SDS011;975;48.760;9.152;2022-12-18T11:59:18;47.67;;;13.88;;
1949;SDS011;975;48.760;9.152;2022-12-18T12:02:15;35.92;;;13.52;;
1949;SDS011;975;48.760;9.152;2022-12-18T12:05:11;43.90;;;13.70;;
1949;SDS011;975;48.760;9.152;2022-12-18T12:08:05;44.05;;;13.40;;
1949;SDS011;975;48.760;9.152;2022-12-18T12:10:57;43.30;;;14.02;;
1949;SDS011;975;48.760;9.152;2022-12-18T12:13:49;41.63;;;13.18;;
1949;SDS011;975;48.760;9.152;2022-12-18T12:16:41;39.38;;;14.27;;
1949;SDS011;975;48.760;9.152;2022-12-18T12:19:33;35.13;;;12.27;;
1949;SDS011;975;48.760;9.152;2022-12-18T12:22:27;38.05;;;12.07;;
1949;SDS011;975;48.760;9.152;2022-12-18T12:25:21;40.33;;;13.68;;
1949;SDS011;975;48.760;9.152;2022-12-18T12:28:15;35.63;;;12.90;;
1949;SDS011;975;48.760;9.152;2022-12-18T12:31:07;33.53;;;12.07;;
1949;SDS011;975;48.760;9.152;2022-12-18T12:34:00;34.35;;;11.73;;
1949;SDS011;975;48.760;9.152;2022-12-18T12:36:57;32.05;;;11.15;;
1949;SDS011;975;48.760;9.152;2022-12-18T12:39:47;32.70;;;12.57;;
1949;SDS011;975;48.760;9.152;2022-12-18T12:42:38;37.15;;;12.88;;
1949;SDS011;975;48.760;9.152;2022-12-18T12:45:45;23.33;;;8.95;;
1949;SDS011;975;48.760;9.152;2022-12-18T12:48:35;34.08;;;11.45;;
1949;SDS011;975;48.760;9.152;2022-12-18T12:51:26;21.02;;;8.52;;
1949;SDS011;975;48.760;9.152;2022-12-18T12:54:16;30.02;;;11.57;;
1949;SDS011;975;48.760;9.152;2022-12-18T12:57:08;31.20;;;11.27;;
1949;SDS011;975;48.760;9.152;2022-12-18T12:59:57;38.88;;;12.73;;
1949;SDS011;975;48.760;9.152;2022-12-18T13:02:49;37.17;;;13.25;;
1949;SDS011;975;48.760;9.152;2022-12-18T13:05:40;31.30;;;9.82;;
1949;SDS011;975;48.760;9.152;2022-12-18T13:08:34;41.08;;;13.73;;
1949;SDS011;975;48.760;9.152;2022-12-18T13:11:38;40.67;;;12.55;;
1949;SDS011;975;48.760;9.152;2022-12-18T13:14:46;36.17;;;10.63;;
1949;SDS011;975;48.760;9.152;2022-12-18T13:17:34;31.73;;;10.80;;
1949;SDS011;975;48.760;9.152;2022-12-18T13:20:22;39.22;;;11.95;;
1949;SDS011;975;48.760;9.152;2022-12-18T13:23:26;32.10;;;12.32;;
1949;SDS011;975;48.760;9.152;2022-12-18T13:26:30;39.55;;;13.50;;
1949;SDS011;975;48.760;9.152;2022-12-18T13:32:23;38.70;;;13.95;;
1949;SDS011;975;48.760;9.152;2022-12-18T13:38:20;33.20;;;13.10;;
1949;SDS011;975;48.760;9.152;2022-12-18T13:41:21;38.25;;;12.45;;
1949;SDS011;975;48.760;9.152;2022-12-18T13:44:10;31.85;;;11.52;;
1949;SDS011;975;48.760;9.152;2022-12-18T13:47:02;33.45;;;12.40;;
1949;SDS011;975;48.760;9.152;2022-12-18T13:49:51;32.92;;;12.35;;
1949;SDS011;975;48.760;9.152;2022-12-18T13:52:40;32.55;;;11.80;;
1949;SDS011;975;48.760;9.152;2022-12-18T13:55:30;33.58;;;12.27;;
1949;SDS011;975;48.760;9.152;2022-12-18T13:58:19;37.60;;;12.88;;
1949;SDS011;975;48.760;9.152;2022-12-18T14:01:15;45.00;;;14.05;;
1949;SDS011;975;48.760;9.152;2022-12-18T14:04:09;37.90;;;13.23;;
1949;SDS011;975;48.760;9.152;2022-12-18T14:07:04;36.53;;;13.00;;
1949;SDS011;975;48.760;9.152;2022-12-18T14:09:53;33.58;;;12.15;;
1949;SDS011;975;48.760;9.152;2022-12-18T14:12:44;37.22;;;11.02;;
1949;SDS011;975;48.760;9.152;2022-12-18T14:15:45;38.10;;;12.90;;
1949;SDS011;975;48.760;9.152;2022-12-18T14:18:37;37.70;;;13.40;;
1949;SDS011;975;48.760;9.152;2022-12-18T14:21:26;34.17;;;11.23;;
1949;SDS011;975;48.760;9.152;2022-12-18T14:24:16;42.80;;;14.35;;
1949;SDS011;975;48.760;9.152;2022-12-18T14:27:12;41.65;;;13.65;;
1949;SDS011;975;48.760;9.152;2022-12-18T14:30:00;38.83;;;12.85;;
1949;SDS011;975;48.760;9.152;2022-12-18T14:32:58;38.85;;;12.88;;
1949;SDS011;975;48.760;9.152;2022-12-18T14:35:52;40.25;;;13.05;;
1949;SDS011;975;48.760;9.152;2022-12-18T14:38:40;36.47;;;12.95;;
1949;SDS011;975;48.760;9.152;2022-12-18T14:41:29;35.70;;;13.02;;
1949;SDS011;975;48.760;9.152;2022-12-18T14:44:18;36.65;;;12.27;;
1949;SDS011;975;48.760;9.152;2022-12-18T14:47:12;40.47;;;12.45;;
1949;SDS011;975;48.760;9.152;2022-12-18T14:50:01;42.85;;;13.07;;
1949;SDS011;975;48.760;9.152;2022-12-18T14:52:48;42.13;;;13.68;;
1949;SDS011;975;48.760;9.152;2022-12-18T14:55:37;38.92;;;12.52;;
1949;SDS011;975;48.760;9.152;2022-12-18T14:58:26;38.88;;;13.38;;
1949;SDS011;975;48.760;9.152;2022-12-18T15:01:18;42.67;;;13.27;;
1949;SDS011;975;48.760;9.152;2022-12-18T15:04:19;46.22;;;14.50;;
1949;SDS011;975;48.760;9.152;2022-12-18T15:07:13;36.35;;;13.00;;
1949;SDS011;975;48.760;9.152;2022-12-18T15:10:03;38.95;;;13.13;;
1949;SDS011;975;48.760;9.152;2022-12-18T15:13:06;39.67;;;14.00;;
1949;SDS011;975;48.760;9.152;2022-12-18T15:15:55;41.38;;;13.45;;
1949;SDS011;975;48.760;9.152;2022-12-18T15:18:44;43.65;;;13.77;;
1949;SDS011;975;48.760;9.152;2022-12-18T15:21:33;43.35;;;14.63;;
1949;SDS011;975;48.760;9.152;2022-12-18T15:24:22;43.92;;;14.73;;
1949;SDS011;975;48.760;9.152;2022-12-18T15:27:19;43.83;;;12.95;;
1949;SDS011;975;48.760;9.152;2022-12-18T15:30:21;42.08;;;14.25;;
1949;SDS011;975;48.760;9.152;2022-12-18T15:33:24;47.13;;;15.15;;
1949;SDS011;975;48.760;9.152;2022-12-18T15:36:13;37.40;;;13.40;;
1949;SDS011;975;48.760;9.152;2022-12-18T15:39:01;41.78;;;14.95;;
1949;SDS011;975;48.760;9.152;2022-12-18T15:41:50;43.03;;;14.13;;
1949;SDS011;975;48.760;9.152;2022-12-18T15:44:55;50.95;;;14.20;;
1949;SDS011;975;48.760;9.152;2022-12-18T15:47:43;39.00;;;13.73;;
1949;SDS011;975;48.760;9.152;2022-12-18T15:50:32;45.15;;;13.75;;
1949;SDS011;975;48.760;9.152;2022-12-18T15:53:20;42.03;;;14.38;;
1949;SDS011;975;48.760;9.152;2022-12-18T15:56:09;49.08;;;16.02;;
1949;SDS011;975;48.760;9.152;2022-12-18T15:59:16;51.72;;;17.05;;
1949;SDS011;975;48.760;9.152;2022-12-18T16:02:07;46.15;;;14.95;;
1949;SDS011;975;48.760;9.152;2022-12-18T16:04:58;39.83;;;13.25;;
1949;SDS011;975;48.760;9.152;2022-12-18T16:07:47;45.83;;;15.50;;
1949;SDS011;975;48.760;9.152;2022-12-18T16:10:35;42.67;;;14.55;;
1949;SDS011;975;48.760;9.152;2022-12-18T16:13:23;44.95;;;15.07;;
1949;SDS011;975;48.760;9.152;2022-12-18T16:16:11;39.13;;;14.25;;
1949;SDS011;975;48.760;9.152;2022-12-18T16:18:59;37.05;;;14.70;;
1949;SDS011;975;48.760;9.152;2022-12-18T16:21:47;44.15;;;14.25;;
1949;SDS011;975;48.760;9.152;2022-12-18T16:24:37;40.60;;;14.32;;
1949;SDS011;975;48.760;9.152;2022-12-18T16:27:25;46.72;;;15.23;;
1949;SDS011;975;48.760;9.152;2022-12-18T16:30:13;42.95;;;14.10;;
1949;SDS011;975;48.760;9.152;2022-12-18T16:33:01;44.63;;;14.65;;
1949;SDS011;975;48.760;9.152;2022-12-18T16:35:52;47.20;;;15.57;;
1949;SDS011;975;48.760;9.152;2022-12-18T16:38:40;40.45;;;14.13;;
1949;SDS011;975;48.760;9.152;2022-12-18T16:41:29;38.05;;;14.73;;
1949;SDS011;975;48.760;9.152;2022-12-18T16:44:17;49.92;;;16.85;;
1949;SDS011;975;48.760;9.152;2022-12-18T16:47:05;53.60;;;16.92;;
1949;SDS011;975;48.760;9.152;2022-12-18T16:49:53;49.05;;;16.48;;
1949;SDS011;975;48.760;9.152;2022-12-18T16:52:41;47.00;;;15.57;;
1949;SDS011;975;48.760;9.152;2022-12-18T16:55:29;45.67;;;14.90;;
1949;SDS011;975;48.760;9.152;2022-12-18T16:58:18;49.45;;;16.45;;
1949;SDS011;975;48.760;9.152;2022-12-18T17:01:06;50.17;;;16.58;;
1949;SDS011;975;48.760;9.152;2022-12-18T17:03:55;49.55;;;14.82;;
1949;SDS011;975;48.760;9.152;2022-12-18T17:06:44;49.42;;;16.13;;
1949;SDS011;975;48.760;9.152;2022-12-18T17:09:38;39.35;;;14.85;;
1949;SDS011;975;48.760;9.152;2022-12-18T17:12:26;56.05;;;15.68;;
1949;SDS011;975;48.760;9.152;2022-12-18T17:15:16;41.10;;;14.95;;
1949;SDS011;975;48.760;9.152;2022-12-18T17:18:04;53.03;;;18.48;;
1949;SDS011;975;48.760;9.152;2022-12-18T17:20:51;48.65;;;17.60;;
1949;SDS011;975;48.760;9.152;2022-12-18T17:23:39;48.55;;;17.35;;
1949;SDS011;975;48.760;9.152;2022-12-18T17:26:28;55.22;;;18.60;;
1949;SDS011;975;48.760;9.152;2022-12-18T17:29:17;43.85;;;16.13;;